Airport View

Enter AWOS ICAO identifier for current METAR.

ex. KFNL

KCKZ 290425Z AUTO 00000KT 10SM CLR 19/19 A2991 RMK AO2

29 Sep 2020 04:28

Frequency: 126.325

Phone: 215-257-7291

Other Area AWOS: KUKT - KDYL - KXLL - KPTW

TAF AMD KABE 290301Z 2903/2924 17006KT P6SM SCT100 FM290700 16005KT P6SM OVC045 FM290900 VRB05KT 5SM BR OVC008 PROB30 2912/2915 3SM -SHRA BR FM291500 17006KT 3SM -SHRA BR OVC008 FM291800 20008KT 5SM -SHRA BR OVC015